createdAt,value
2022-09-20T00:01:11.104Z,6.70
2022-09-20T00:04:53.075Z,6.40
2022-09-20T00:08:35.600Z,6.57
2022-09-20T00:12:17.645Z,7.30
2022-09-20T00:16:00.154Z,7.63
2022-09-20T00:19:42.054Z,6.97
2022-09-20T00:23:23.982Z,7.37
2022-09-20T00:27:06.052Z,7.10
2022-09-20T00:30:49.519Z,7.20
2022-09-20T00:34:49.880Z,6.33
2022-09-20T00:38:31.972Z,6.23
2022-09-20T00:42:14.942Z,6.50
2022-09-20T00:45:57.157Z,5.47
2022-09-20T00:49:39.179Z,5.93
2022-09-20T00:53:38.230Z,5.53
2022-09-20T00:57:20.312Z,5.37
2022-09-20T01:01:04.634Z,5.50
2022-09-20T01:04:48.078Z,5.27
2022-09-20T01:08:31.697Z,4.80
2022-09-20T01:12:18.304Z,5.47
2022-09-20T01:16:02.921Z,5.63
2022-09-20T01:20:11.313Z,6.07
2022-09-20T01:23:56.161Z,4.93
2022-09-20T01:27:42.534Z,5.43
2022-09-20T01:31:26.890Z,5.50
2022-09-20T01:35:11.668Z,5.43
2022-09-20T01:39:12.025Z,5.53
2022-09-20T01:43:03.924Z,5.57
2022-09-20T01:46:50.722Z,5.50
2022-09-20T01:51:03.376Z,4.97
2022-09-20T01:55:00.258Z,5.20
2022-09-20T01:59:23.152Z,5.30
2022-09-20T02:03:15.711Z,4.63
2022-09-20T02:07:12.600Z,5.30
2022-09-20T02:11:08.086Z,4.73
2022-09-20T02:15:17.883Z,6.00
2022-09-20T02:19:36.455Z,5.03
2022-09-20T02:23:48.438Z,4.70
2022-09-20T02:27:36.397Z,5.30
2022-09-20T02:31:46.308Z,4.87
2022-09-20T02:36:02.007Z,4.80
2022-09-20T02:39:48.964Z,5.30
2022-09-20T02:43:37.835Z,4.80
2022-09-20T02:47:34.285Z,4.70
2022-09-20T02:51:42.409Z,4.70
2022-09-20T02:55:55.262Z,4.50
2022-09-20T02:59:42.387Z,4.13
2022-09-20T03:03:47.217Z,5.23
2022-09-20T03:07:57.547Z,4.70
2022-09-20T03:11:47.566Z,4.37
2022-09-20T03:16:07.147Z,4.60
2022-09-20T03:19:56.928Z,4.67
2022-09-20T03:23:54.067Z,4.20
2022-09-20T03:27:56.732Z,4.87
2022-09-20T03:32:08.628Z,4.47
2022-09-20T03:36:24.769Z,4.93
2022-09-20T03:40:19.582Z,4.30
2022-09-20T03:44:34.543Z,4.47
2022-09-20T03:48:37.567Z,4.33
2022-09-20T03:52:35.623Z,4.53
2022-09-20T03:56:36.123Z,4.37
2022-09-20T04:00:21.166Z,4.03
2022-09-20T04:04:19.892Z,4.30
2022-09-20T04:08:21.685Z,4.33
2022-09-20T04:12:18.717Z,4.80
2022-09-20T04:16:31.739Z,4.13
2022-09-20T04:20:16.911Z,5.33
2022-09-20T04:24:05.437Z,4.50
2022-09-20T04:27:52.916Z,4.57
2022-09-20T04:32:00.821Z,4.17
2022-09-20T04:36:29.431Z,5.30
2022-09-20T04:40:36.305Z,4.20
2022-09-20T04:44:55.877Z,4.72
2022-09-20T04:49:02.833Z,4.47
2022-09-20T04:56:54.307Z,4.43
2022-09-20T05:01:16.687Z,4.40
2022-09-20T05:05:30.324Z,4.37
2022-09-20T05:09:33.676Z,3.83
2022-09-20T05:13:36.679Z,4.20
2022-09-20T05:17:56.235Z,4.30
2022-09-20T05:22:02.409Z,4.07
2022-09-20T05:25:59.495Z,4.43
2022-09-20T05:30:00.262Z,5.13
2022-09-20T05:34:27.252Z,4.30
2022-09-20T05:38:41.014Z,4.67
2022-09-20T05:42:41.521Z,4.80
2022-09-20T05:46:57.710Z,4.43
2022-09-20T05:51:03.827Z,4.53
2022-09-20T05:55:19.957Z,4.75
2022-09-20T05:59:14.286Z,4.60
2022-09-20T06:03:21.594Z,5.47
2022-09-20T06:07:41.704Z,4.20
2022-09-20T06:11:44.588Z,4.50
2022-09-20T06:15:47.991Z,4.60
2022-09-20T06:19:48.152Z,5.07
2022-09-20T06:23:31.846Z,4.93
2022-09-20T06:27:26.355Z,4.50
2022-09-20T06:31:10.687Z,4.03
2022-09-20T06:34:53.387Z,4.13
2022-09-20T06:39:29.515Z,3.87
2022-09-20T06:43:14.508Z,3.83
2022-09-20T06:46:56.485Z,4.50
2022-09-20T06:50:39.184Z,4.17
2022-09-20T06:54:22.306Z,3.87
2022-09-20T06:58:04.328Z,4.13
2022-09-20T07:01:47.184Z,4.40
2022-09-20T07:05:29.472Z,3.90
2022-09-20T07:09:12.153Z,4.43
2022-09-20T07:13:02.129Z,4.30
2022-09-20T07:16:44.692Z,5.00
2022-09-20T07:20:27.606Z,5.10
2022-09-20T07:24:09.581Z,5.30
2022-09-20T07:27:51.849Z,4.87
2022-09-20T07:31:33.985Z,4.93
2022-09-20T07:35:16.270Z,3.67
2022-09-20T07:38:58.353Z,3.85
2022-09-20T07:42:40.415Z,4.30
2022-09-20T07:46:23.648Z,3.63
2022-09-20T07:50:06.343Z,2.97
2022-09-20T07:53:48.390Z,4.18
2022-09-20T07:57:35.032Z,4.10
2022-09-20T08:01:17.116Z,3.97
2022-09-20T08:04:59.342Z,4.03
2022-09-20T08:08:41.357Z,3.85
2022-09-20T08:16:28.048Z,4.07
2022-09-20T08:20:10.131Z,4.22
2022-09-20T08:23:52.603Z,5.00
2022-09-20T08:27:34.650Z,4.82
2022-09-20T08:31:21.371Z,5.63
2022-09-20T08:35:04.014Z,4.53
2022-09-20T08:42:48.959Z,5.47
2022-09-20T08:46:35.789Z,5.70
2022-09-20T08:50:18.149Z,6.30
2022-09-20T08:54:00.645Z,4.88
2022-09-20T08:57:43.758Z,6.47
2022-09-20T09:01:27.545Z,5.50
2022-09-20T09:05:40.586Z,6.40
2022-09-20T09:09:26.259Z,6.45
2022-09-20T09:16:50.389Z,6.65
2022-09-20T09:20:41.432Z,6.32
2022-09-20T09:24:25.636Z,6.38
2022-09-20T09:28:07.366Z,7.10
2022-09-20T09:31:51.928Z,6.93
2022-09-20T09:35:36.335Z,6.25
2022-09-20T09:39:27.856Z,5.63
2022-09-20T09:43:23.516Z,5.55
2022-09-20T09:47:29.177Z,6.40
2022-09-20T09:51:17.110Z,5.93
2022-09-20T09:55:04.921Z,4.78
2022-09-20T09:58:59.244Z,5.10
2022-09-20T10:03:00.439Z,2.95
2022-09-20T10:07:03.638Z,2.80
2022-09-20T10:11:04.247Z,3.38
2022-09-20T10:15:13.553Z,6.78
2022-09-20T10:19:06.676Z,3.20
2022-09-20T10:23:39.297Z,3.15
2022-09-20T10:27:30.465Z,3.20
2022-09-20T10:31:35.849Z,2.58
2022-09-20T10:35:48.491Z,3.42
2022-09-20T10:39:41.403Z,3.13
2022-09-20T10:43:41.015Z,2.13
2022-09-20T10:47:33.489Z,1.40
2022-09-20T10:51:53.785Z,4.00
2022-09-20T10:55:47.460Z,2.28
2022-09-20T10:59:54.879Z,2.15
2022-09-20T11:04:07.030Z,1.65
2022-09-20T11:08:09.046Z,2.30
2022-09-20T11:11:55.965Z,2.22
2022-09-20T11:16:10.640Z,1.98
2022-09-20T11:20:07.139Z,2.13
2022-09-20T11:24:01.994Z,2.17
2022-09-20T11:27:53.266Z,1.40
2022-09-20T11:31:45.076Z,1.58
2022-09-20T11:35:53.065Z,1.25
2022-09-20T11:40:00.368Z,1.63
2022-09-20T11:43:46.529Z,1.45
2022-09-20T11:51:57.931Z,1.60
2022-09-20T11:55:50.283Z,1.25
2022-09-20T11:59:43.506Z,1.17
2022-09-20T12:03:36.529Z,1.20
2022-09-20T12:07:25.172Z,1.27
2022-09-20T12:11:11.042Z,1.50
2022-09-20T12:14:58.986Z,1.13
2022-09-20T12:18:54.015Z,1.48
2022-09-20T12:22:36.109Z,1.10
2022-09-20T12:26:21.075Z,1.92
2022-09-20T12:34:01.213Z,1.73
2022-09-20T12:37:43.282Z,1.20
2022-09-20T12:41:28.666Z,1.83
2022-09-20T12:45:20.621Z,2.10
2022-09-20T12:49:40.583Z,1.33
2022-09-20T12:53:22.906Z,1.52
2022-09-20T12:57:32.253Z,0.95
2022-09-20T13:01:14.813Z,1.27
2022-09-20T13:04:57.043Z,1.48
2022-09-20T13:08:42.903Z,1.38
2022-09-20T13:12:24.788Z,1.75
2022-09-20T13:16:07.363Z,2.25
2022-09-20T13:19:50.930Z,1.60
2022-09-20T13:23:45.631Z,1.60
2022-09-20T13:27:38.536Z,1.00
2022-09-20T13:31:24.709Z,1.40
2022-09-20T13:35:08.497Z,1.70
2022-09-20T13:38:50.714Z,4.57
2022-09-20T13:42:37.292Z,1.38
2022-09-20T13:46:46.155Z,1.40
2022-09-20T13:50:28.372Z,1.30
2022-09-20T13:54:32.934Z,1.40
2022-09-20T13:58:20.418Z,1.70
2022-09-20T14:02:03.703Z,1.90
2022-09-20T14:05:53.353Z,1.80
2022-09-20T14:09:39.545Z,1.63
2022-09-20T14:13:23.119Z,1.60
2022-09-20T14:17:08.955Z,1.48
2022-09-20T14:20:55.350Z,1.90
2022-09-20T14:24:37.789Z,1.33
2022-09-20T14:28:24.586Z,1.88
2022-09-20T14:32:19.531Z,6.03
2022-09-20T14:36:01.530Z,20.92
2022-09-20T14:40:14.693Z,2.33
2022-09-20T14:43:59.434Z,2.00
2022-09-20T14:47:55.123Z,1.80
2022-09-20T14:55:23.185Z,2.03
2022-09-20T14:59:05.624Z,1.92
2022-09-20T15:02:48.263Z,1.90
2022-09-20T15:06:30.169Z,2.17
2022-09-20T15:10:15.857Z,1.90
2022-09-20T15:13:59.086Z,2.10
2022-09-20T15:17:42.736Z,2.30
2022-09-20T15:21:25.865Z,2.10
2022-09-20T15:25:14.047Z,2.20
2022-09-20T15:28:55.957Z,2.35
2022-09-20T15:32:39.007Z,2.45
2022-09-20T15:36:21.040Z,2.83
2022-09-20T15:40:04.226Z,3.03
2022-09-20T15:43:47.314Z,2.13
2022-09-20T15:47:29.342Z,2.88
2022-09-20T15:51:12.566Z,3.05
2022-09-20T15:54:54.548Z,3.00
2022-09-20T15:58:36.808Z,2.97
2022-09-20T16:02:20.709Z,2.63
2022-09-20T16:06:05.468Z,2.55
2022-09-20T16:09:47.325Z,2.50
2022-09-20T16:13:29.890Z,3.60
2022-09-20T16:17:11.813Z,2.55
2022-09-20T16:20:53.870Z,2.25
2022-09-20T16:24:36.561Z,2.42
2022-09-20T16:28:18.609Z,2.42
2022-09-20T16:32:03.803Z,2.15
2022-09-20T16:35:45.835Z,2.28
2022-09-20T16:39:30.155Z,1.98
2022-09-20T16:43:12.246Z,2.00
2022-09-20T16:46:55.745Z,2.05
2022-09-20T16:50:37.902Z,2.53
2022-09-20T16:54:20.467Z,2.97
2022-09-20T16:58:02.562Z,2.08
2022-09-20T17:01:45.309Z,2.80
2022-09-20T17:05:27.281Z,3.10
2022-09-20T17:09:10.029Z,2.50
2022-09-20T17:12:57.951Z,2.22
2022-09-20T17:16:41.967Z,4.22
2022-09-20T17:20:27.154Z,7.53
2022-09-20T17:24:09.729Z,3.50
2022-09-20T17:27:51.583Z,2.20
2022-09-20T17:31:36.585Z,2.10
2022-09-20T17:35:18.659Z,2.50
2022-09-20T17:39:04.531Z,2.10
2022-09-20T17:42:47.701Z,2.25
2022-09-20T17:46:31.837Z,2.63
2022-09-20T17:50:15.459Z,2.40
2022-09-20T17:53:58.136Z,3.72
2022-09-20T17:57:41.354Z,3.42
2022-09-20T18:01:23.541Z,3.58
2022-09-20T18:05:05.734Z,3.42
2022-09-20T18:09:05.479Z,2.92
2022-09-20T18:12:50.258Z,3.13
2022-09-20T18:16:34.039Z,3.15
2022-09-20T18:20:16.518Z,3.13
2022-09-20T18:23:59.357Z,3.15
2022-09-20T18:27:41.631Z,3.70
2022-09-20T18:31:37.222Z,3.00
2022-09-20T18:35:19.300Z,3.33
2022-09-20T18:39:01.448Z,3.38
2022-09-20T18:42:43.367Z,14.55
2022-09-20T18:46:27.076Z,3.90
2022-09-20T18:50:10.718Z,3.33
2022-09-20T18:53:53.163Z,3.50
2022-09-20T18:57:35.278Z,2.90
2022-09-20T19:01:48.634Z,3.25
2022-09-20T19:05:44.328Z,5.13
2022-09-20T19:09:57.272Z,4.55
2022-09-20T19:13:58.013Z,4.50
2022-09-20T19:18:03.327Z,3.70
2022-09-20T19:21:57.676Z,4.88
2022-09-20T19:25:48.495Z,5.85
2022-09-20T19:29:32.129Z,2.92
2022-09-20T19:33:19.588Z,2.60
2022-09-20T19:37:32.764Z,3.10
2022-09-20T19:41:41.211Z,3.05
2022-09-20T19:45:31.468Z,3.03
2022-09-20T19:49:14.641Z,2.97
2022-09-20T19:52:56.819Z,3.25
2022-09-20T19:56:59.617Z,3.33
2022-09-20T20:00:44.832Z,4.28
2022-09-20T20:04:27.201Z,3.80
2022-09-20T20:08:25.871Z,3.53
2022-09-20T20:12:07.870Z,3.53
2022-09-20T20:15:58.210Z,3.28
2022-09-20T20:20:14.916Z,4.13
2022-09-20T20:23:56.806Z,4.03
2022-09-20T20:27:39.099Z,4.53
2022-09-20T20:31:21.882Z,4.63
2022-09-20T20:35:04.427Z,4.10
2022-09-20T20:38:50.040Z,11.10
2022-09-20T20:42:32.159Z,7.78
2022-09-20T20:46:18.778Z,6.00
2022-09-20T20:50:00.758Z,5.00
2022-09-20T20:53:54.659Z,3.83
2022-09-20T20:57:36.704Z,3.80
2022-09-20T21:01:21.887Z,4.17
2022-09-20T21:05:04.370Z,3.83
2022-09-20T21:08:49.605Z,3.83
2022-09-20T21:12:31.894Z,8.55
2022-09-20T21:16:16.695Z,4.80
2022-09-20T21:19:58.790Z,4.57
2022-09-20T21:23:40.661Z,4.63
2022-09-20T21:27:22.792Z,4.43
2022-09-20T21:31:06.420Z,4.87
2022-09-20T21:34:48.577Z,4.73
2022-09-20T21:38:34.372Z,4.53
2022-09-20T21:42:17.326Z,5.22
2022-09-20T21:45:59.297Z,6.77
2022-09-20T21:49:41.278Z,7.60
2022-09-20T21:53:23.341Z,6.83
2022-09-20T21:57:05.958Z,5.93
2022-09-20T22:01:06.893Z,7.43
2022-09-20T22:04:50.005Z,8.47
2022-09-20T22:08:31.960Z,8.20
2022-09-20T22:12:13.851Z,7.50
2022-09-20T22:16:05.268Z,12.07
2022-09-20T22:19:47.280Z,5.50
2022-09-20T22:23:30.222Z,5.73
2022-09-20T22:27:12.076Z,6.13
2022-09-20T22:30:54.020Z,6.10
2022-09-20T22:34:35.963Z,5.30
2022-09-20T22:38:18.582Z,5.07
2022-09-20T22:42:00.740Z,4.10
2022-09-20T22:45:42.944Z,4.40
2022-09-20T22:49:24.911Z,4.50
2022-09-20T22:53:06.853Z,3.97
2022-09-20T22:56:49.047Z,4.90
2022-09-20T23:00:31.042Z,4.90
2022-09-20T23:04:18.994Z,4.77
2022-09-20T23:08:01.132Z,5.20
2022-09-20T23:11:43.909Z,4.97
2022-09-20T23:15:25.785Z,4.70
2022-09-20T23:19:09.157Z,4.97
2022-09-20T23:22:51.196Z,5.33
2022-09-20T23:26:35.011Z,5.13
2022-09-20T23:30:17.108Z,5.10
2022-09-20T23:34:01.664Z,5.33
2022-09-20T23:37:43.565Z,5.60
2022-09-20T23:41:27.488Z,5.27
2022-09-20T23:45:10.346Z,6.00
2022-09-20T23:48:52.807Z,5.00
2022-09-20T23:52:34.707Z,5.40
2022-09-20T23:56:16.743Z,5.57
2022-09-20T23:59:59.403Z,5.33
